Time;durP1;ratioP1;P1;durP2;ratioP2;P2;SDS_P1;SDS_P2;PMS_P1;PMS_P2;Temp;Humidity;BMP_temperature;BMP_pressure;BME280_temperature;BME280_humidity;BME280_pressure;Samples;Min_cycle;Max_cycle;Signal;HPM_P1;HPM_P2
2022/07/20 00:00:41;;;;;;;6.50;5.27;;;25.10;56.10;;;;;;10343476;28;20207;-77
2022/07/20 00:05:47;;;;;;;9.87;5.53;;;25.00;56.60;;;;;;10351551;28;20686;-78
2022/07/20 00:16:11;;;;;;;6.47;5.67;;;24.90;57.70;;;;;;10354895;28;20595;-76
2022/07/20 00:21:16;;;;;;;5.80;5.20;;;24.90;56.80;;;;;;10366326;28;20707;-79
2022/07/20 00:26:18;;;;;;;6.13;5.63;;;24.80;56.60;;;;;;10354471;28;20326;-76
2022/07/20 00:31:23;;;;;;;6.10;5.50;;;24.80;56.40;;;;;;10372732;28;20257;-79
2022/07/20 00:36:25;;;;;;;7.50;5.80;;;24.70;56.90;;;;;;10365501;28;20218;-76
2022/07/20 00:41:30;;;;;;;5.67;5.27;;;24.60;57.40;;;;;;10376089;28;20637;-79
2022/07/20 00:46:35;;;;;;;6.23;5.63;;;24.60;58.20;;;;;;10378621;28;20801;-79
2022/07/20 00:51:40;;;;;;;5.53;5.03;;;24.50;57.60;;;;;;10379991;28;20297;-79
2022/07/20 00:56:42;;;;;;;6.00;4.73;;;24.40;58.20;;;;;;10367300;28;20313;-78
2022/07/20 01:01:55;;;;;;;6.17;5.57;;;24.40;57.90;;;;;;10356528;28;20206;-77
2022/07/20 01:06:57;;;;;;;6.17;5.23;;;24.30;58.20;;;;;;10336705;28;20632;-77
2022/07/20 01:12:00;;;;;;;6.10;5.50;;;24.30;58.10;;;;;;10368155;28;20219;-79
2022/07/20 01:17:03;;;;;;;6.13;5.53;;;24.20;58.60;;;;;;10370241;28;20629;-78
2022/07/20 01:22:07;;;;;;;6.13;5.63;;;24.20;58.50;;;;;;10370282;28;20199;-78
2022/07/20 01:27:09;;;;;;;5.43;4.80;;;24.10;59.20;;;;;;10362057;28;20218;-78
2022/07/20 01:32:11;;;;;;;5.97;5.20;;;24.00;58.20;;;;;;10358734;28;20284;-78
2022/07/20 01:37:15;;;;;;;6.13;5.43;;;23.90;58.80;;;;;;10372740;28;20691;-78
2022/07/20 01:42:17;;;;;;;5.80;5.30;;;23.90;58.80;;;;;;10368294;28;20253;-78
2022/07/20 01:47:19;;;;;;;4.80;4.50;;;23.80;58.90;;;;;;10369094;28;20265;-78
2022/07/20 01:52:22;;;;;;;6.77;4.77;;;23.80;58.70;;;;;;10369877;28;20655;-78
2022/07/20 01:57:24;;;;;;;4.80;4.40;;;23.80;59.20;;;;;;10353988;28;20245;-78
2022/07/20 02:02:26;;;;;;;5.53;5.03;;;23.70;58.90;;;;;;10372708;28;20594;-78
2022/07/20 02:07:30;;;;;;;5.17;4.67;;;23.70;58.50;;;;;;10361682;28;20257;-78
2022/07/20 02:12:32;;;;;;;5.23;4.77;;;23.70;58.70;;;;;;10369003;28;20512;-78
2022/07/20 02:17:34;;;;;;;5.97;5.30;;;23.70;59.60;;;;;;10360595;28;20202;-78
2022/07/20 02:22:38;;;;;;;5.57;4.90;;;23.70;59.50;;;;;;10348071;28;20461;-78
2022/07/20 02:27:40;;;;;;;5.40;4.90;;;23.70;59.40;;;;;;10364554;28;20525;-78
2022/07/20 02:32:42;;;;;;;5.17;4.70;;;23.70;59.50;;;;;;10368360;28;20737;-78
2022/07/20 02:37:45;;;;;;;6.60;4.83;;;23.70;59.70;;;;;;10378981;28;20209;-78
2022/07/20 02:42:47;;;;;;;5.10;4.70;;;23.70;59.60;;;;;;10378743;28;20423;-77
2022/07/20 02:47:49;;;;;;;5.53;5.03;;;23.60;60.60;;;;;;10362924;28;20277;-78
2022/07/20 02:52:53;;;;;;;4.90;4.60;;;23.70;60.90;;;;;;10369160;28;20233;-77
2022/07/20 02:57:55;;;;;;;5.40;5.00;;;23.60;59.80;;;;;;10370656;28;20230;-77
2022/07/20 03:02:57;;;;;;;5.90;5.37;;;23.60;59.40;;;;;;10371656;28;20210;-77
2022/07/20 03:08:01;;;;;;;5.47;5.07;;;23.60;60.40;;;;;;10372779;28;20202;-76
2022/07/20 03:13:04;;;;;;;5.50;5.10;;;23.50;59.90;;;;;;10357159;28;20293;-76
2022/07/20 03:18:06;;;;;;;6.97;6.00;;;23.50;60.00;;;;;;10368798;28;20237;-76
2022/07/20 03:23:09;;;;;;;6.50;4.57;;;23.50;61.00;;;;;;10356834;28;20221;-76
2022/07/20 03:28:11;;;;;;;5.87;5.30;;;23.40;60.30;;;;;;10356587;28;20298;-76
2022/07/20 03:33:13;;;;;;;5.83;5.33;;;23.40;59.70;;;;;;10354929;28;20300;-76
2022/07/20 03:38:17;;;;;;;5.80;4.43;;;23.30;59.80;;;;;;10355601;28;20290;-77
2022/07/20 03:43:19;;;;;;;6.67;5.30;;;23.30;59.70;;;;;;10368342;28;20234;-77
2022/07/20 03:48:21;;;;;;;6.63;5.07;;;23.20;59.90;;;;;;10368948;28;20229;-76
2022/07/20 03:53:24;;;;;;;7.37;5.33;;;23.20;60.20;;;;;;10370083;28;20230;-77
2022/07/20 03:58:27;;;;;;;5.73;5.23;;;23.20;60.60;;;;;;10369305;28;20222;-78
2022/07/20 04:03:29;;;;;;;5.03;4.73;;;23.10;61.70;;;;;;10359259;28;20276;-78
2022/07/20 04:08:33;;;;;;;5.43;4.93;;;23.20;61.50;;;;;;10354460;28;20526;-78
2022/07/20 04:13:35;;;;;;;6.20;4.90;;;23.10;63.40;;;;;;10354798;28;20261;-78
2022/07/20 04:18:37;;;;;;;5.27;4.87;;;23.20;61.10;;;;;;10374420;28;20237;-79
2022/07/20 04:23:40;;;;;;;6.93;4.70;;;23.20;61.00;;;;;;10376872;28;20305;-79
2022/07/20 04:28:42;;;;;;;5.90;5.50;;;23.20;60.50;;;;;;10378732;28;20198;-78
2022/07/20 04:33:44;;;;;;;7.30;5.90;;;23.10;61.80;;;;;;10357458;28;20222;-79
2022/07/20 04:38:48;;;;;;;4.90;4.50;;;23.20;61.90;;;;;;10375126;28;20226;-79
2022/07/20 04:43:50;;;;;;;5.80;5.40;;;23.20;62.50;;;;;;10376571;28;20235;-78
2022/07/20 04:48:52;;;;;;;9.77;5.57;;;23.20;62.10;;;;;;10361782;28;20652;-76
2022/07/20 04:53:55;;;;;;;6.17;4.80;;;23.10;62.70;;;;;;10362321;28;20230;-77
2022/07/20 04:58:58;;;;;;;8.87;4.67;;;23.10;63.10;;;;;;10365843;28;20203;-76
2022/07/20 05:04:00;;;;;;;5.53;5.03;;;23.20;64.30;;;;;;10370939;28;20295;-78
2022/07/20 05:09:06;;;;;;;5.63;5.13;;;23.20;64.80;;;;;;10361529;28;20213;-79
2022/07/20 05:14:10;;;;;;;9.57;5.50;;;23.20;64.10;;;;;;10380089;28;20222;-79
2022/07/20 05:19:12;;;;;;;5.90;5.40;;;23.30;64.50;;;;;;10357185;28;20268;-79
2022/07/20 05:24:15;;;;;;;6.90;6.17;;;23.30;65.10;;;;;;10355422;28;20637;-79
2022/07/20 05:29:18;;;;;;;6.73;5.00;;;23.30;64.70;;;;;;10356731;28;20234;-78
2022/07/20 05:34:20;;;;;;;7.23;5.50;;;23.40;66.50;;;;;;10377032;28;20272;-78
2022/07/20 05:39:23;;;;;;;7.20;6.60;;;23.40;66.00;;;;;;10375411;28;20302;-79
2022/07/20 05:44:25;;;;;;;6.83;6.20;;;23.50;67.80;;;;;;10371257;28;20456;-79
2022/07/20 05:49:27;;;;;;;7.03;6.00;;;23.50;66.10;;;;;;10373141;28;20205;-79
2022/07/20 05:54:31;;;;;;;11.33;6.50;;;23.50;66.10;;;;;;10373332;28;20242;-79
2022/07/20 05:59:33;;;;;;;7.50;6.80;;;23.60;66.60;;;;;;10373952;28;20198;-79
2022/07/20 06:04:35;;;;;;;7.20;6.60;;;23.60;67.60;;;;;;10370517;28;20218;-78
2022/07/20 06:09:38;;;;;;;11.20;6.17;;;23.70;67.50;;;;;;10371026;28;20325;-78
2022/07/20 06:14:41;;;;;;;7.50;6.33;;;23.70;67.50;;;;;;10372113;28;20229;-79
2022/07/20 06:19:43;;;;;;;6.50;5.87;;;23.80;65.60;;;;;;10370880;28;20225;-78
2022/07/20 06:24:46;;;;;;;6.63;5.90;;;23.90;66.70;;;;;;10366239;28;20290;-77
2022/07/20 06:29:48;;;;;;;6.33;5.83;;;23.90;65.50;;;;;;10369859;28;20233;-79
2022/07/20 06:34:50;;;;;;;7.33;6.70;;;24.00;66.40;;;;;;10354071;28;20631;-78
2022/07/20 06:39:54;;;;;;;9.10;7.00;;;24.10;65.00;;;;;;10373188;28;20237;-79
2022/07/20 06:44:56;;;;;;;10.33;7.57;;;24.30;65.20;;;;;;10358746;28;20301;-77
2022/07/20 06:49:58;;;;;;;8.80;6.80;;;24.50;64.50;;;;;;10368947;28;20199;-79
2022/07/20 06:55:02;;;;;;;7.97;7.30;;;24.70;63.90;;;;;;10420349;22;20275;-83
2022/07/20 07:00:05;;;;;;;6.70;6.20;;;25.00;64.20;;;;;;10458445;28;20240;-82
2022/07/20 07:05:08;;;;;;;9.67;6.60;;;25.20;63.70;;;;;;10477479;28;20303;-83
2022/07/20 07:10:12;;;;;;;6.90;6.30;;;25.50;63.90;;;;;;10499837;28;20235;-83
2022/07/20 07:15:14;;;;;;;7.13;6.43;;;25.80;63.50;;;;;;10507690;28;20691;-83
2022/07/20 07:20:16;;;;;;;8.70;6.90;;;26.00;63.00;;;;;;10500730;28;20228;-83
2022/07/20 07:25:20;;;;;;;7.60;7.00;;;26.20;61.40;;;;;;10498888;28;20637;-83
2022/07/20 07:30:22;;;;;;;11.60;7.40;;;26.60;60.60;;;;;;10498720;28;20246;-83
2022/07/20 07:35:24;;;;;;;9.20;7.57;;;26.80;59.90;;;;;;10501910;28;20239;-83
2022/07/20 07:40:28;;;;;;;7.60;6.87;;;27.20;59.70;;;;;;10485280;28;20281;-83
2022/07/20 07:45:30;;;;;;;11.30;6.77;;;27.40;59.80;;;;;;10502083;28;20212;-84
2022/07/20 07:50:32;;;;;;;7.20;6.50;;;27.70;59.30;;;;;;10503008;28;20650;-83
2022/07/20 07:55:36;;;;;;;7.40;6.80;;;28.00;59.10;;;;;;10506005;28;20227;-83
2022/07/20 08:00:39;;;;;;;7.80;6.03;;;28.40;58.30;;;;;;10507760;28;20618;-83
2022/07/20 08:05:41;;;;;;;5.97;5.30;;;28.70;57.50;;;;;;10507006;28;20278;-83
2022/07/20 08:10:45;;;;;;;8.10;6.20;;;29.10;56.60;;;;;;10480080;28;20220;-82
2022/07/20 08:15:47;;;;;;;7.10;6.40;;;29.60;56.00;;;;;;10506309;28;20247;-80
2022/07/20 08:20:50;;;;;;;8.33;6.20;;;30.10;54.50;;;;;;10501370;28;20200;-80
2022/07/20 08:25:53;;;;;;;8.23;7.07;;;30.60;54.60;;;;;;10483154;28;20224;-80
2022/07/20 08:30:55;;;;;;;6.77;6.17;;;31.20;53.20;;;;;;10496678;28;20736;-79
2022/07/20 08:35:57;;;;;;;5.80;5.40;;;31.80;52.60;;;;;;10494010;28;20221;-79
2022/07/20 08:41:02;;;;;;;6.73;5.93;;;32.40;51.80;;;;;;10490313;28;20246;-79
2022/07/20 08:46:04;;;;;;;7.00;6.40;;;33.00;50.50;;;;;;10496866;28;20303;-79
2022/07/20 08:51:06;;;;;;;6.60;6.00;;;33.50;48.90;;;;;;10496478;28;20563;-79
2022/07/20 08:56:11;;;;;;;6.80;6.10;;;33.90;49.50;;;;;;10490991;28;20225;-82
2022/07/20 09:01:14;;;;;;;7.40;5.70;;;34.30;48.80;;;;;;10497925;28;20265;-80
2022/07/20 09:06:16;;;;;;;7.47;5.13;;;34.60;46.80;;;;;;10481926;28;20212;-79
2022/07/20 09:11:21;;;;;;;7.00;6.40;;;34.80;46.20;;;;;;10499039;28;20199;-79
2022/07/20 09:16:36;;;;;;;6.03;5.40;;;35.00;45.60;;;;;;10489062;28;20246;-80
2022/07/20 09:21:38;;;;;;;7.00;5.60;;;35.40;46.60;;;;;;10501895;28;20641;-81
2022/07/20 09:26:42;;;;;;;7.20;6.50;;;35.70;46.80;;;;;;10488630;28;20299;-79
2022/07/20 09:31:45;;;;;;;8.03;6.30;;;35.90;46.10;;;;;;10494010;28;20198;-82
2022/07/20 09:36:48;;;;;;;7.47;6.27;;;36.20;44.50;;;;;;10494630;28;20212;-82
2022/07/20 09:41:54;;;;;;;6.10;5.60;;;36.40;44.10;;;;;;10469289;28;20550;-81
2022/07/20 09:46:58;;;;;;;8.43;6.18;;;36.60;43.40;;;;;;10457012;28;20222;-81
2022/07/20 09:52:03;;;;;;;6.90;6.28;;;36.90;43.30;;;;;;10465277;28;20200;-80
2022/07/20 09:57:08;;;;;;;9.15;6.10;;;37.30;43.10;;;;;;10496936;28;20246;-80
2022/07/20 10:02:10;;;;;;;6.00;5.60;;;37.90;41.40;;;;;;10503164;28;20189;-80
2022/07/20 10:07:12;;;;;;;7.05;5.75;;;38.70;40.00;;;;;;10496084;28;20247;-82
2022/07/20 10:12:18;;;;;;;5.32;5.00;;;39.50;39.70;;;;;;10500787;28;20192;-80
2022/07/20 10:17:20;;;;;;;6.00;5.50;;;40.20;38.90;;;;;;10504982;28;20521;-81
2022/07/20 10:22:22;;;;;;;6.82;5.05;;;40.60;38.00;;;;;;10503344;28;20607;-81
2022/07/20 10:27:27;;;;;;;5.72;5.32;;;40.60;37.90;;;;;;10504254;28;20516;-81
2022/07/20 10:32:30;;;;;;;6.43;6.03;;;39.80;37.50;;;;;;10503433;28;20210;-80
2022/07/20 10:37:36;;;;;;;6.53;5.93;;;38.60;39.40;;;;;;10500884;28;20310;-80
2022/07/20 10:42:41;;;;;;;6.37;5.53;;;37.40;40.50;;;;;;10515856;28;20687;-79
2022/07/20 10:47:45;;;;;;;7.23;6.73;;;36.40;42.00;;;;;;10528332;28;20254;-81
2022/07/20 10:52:48;;;;;;;7.03;6.53;;;35.50;44.00;;;;;;10513330;28;20559;-80
2022/07/20 10:57:52;;;;;;;6.57;6.17;;;34.80;43.80;;;;;;10515149;28;20296;-80
2022/07/20 11:02:55;;;;;;;6.97;6.37;;;34.30;44.20;;;;;;10504234;28;20238;-79
2022/07/20 11:07:57;;;;;;;6.97;6.30;;;33.90;44.80;;;;;;10495518;28;20222;-79
2022/07/20 11:13:03;;;;;;;6.30;5.80;;;33.50;45.50;;;;;;10487049;28;20212;-81
2022/07/20 11:18:07;;;;;;;6.00;5.70;;;33.20;47.00;;;;;;10464228;28;20275;-80
2022/07/20 11:23:09;;;;;;;7.13;6.40;;;32.90;46.70;;;;;;10469944;28;20199;-80
2022/07/20 11:28:13;;;;;;;6.90;6.27;;;32.70;47.00;;;;;;10461241;28;20287;-80
2022/07/20 11:33:22;;;;;;;8.53;6.57;;;32.60;45.70;;;;;;10454910;28;20232;-81
2022/07/20 11:38:33;;;;;;;6.53;6.13;;;32.50;46.70;;;;;;10486405;28;20258;-79
2022/07/20 11:43:37;;;;;;;7.27;6.67;;;32.40;47.80;;;;;;10482178;28;20659;-80
2022/07/20 11:48:40;;;;;;;7.60;7.00;;;32.30;47.80;;;;;;10481971;28;20647;-82
2022/07/20 11:53:42;;;;;;;8.53;6.40;;;32.20;48.10;;;;;;10484086;28;20316;-81
2022/07/20 11:58:47;;;;;;;6.83;6.33;;;32.10;48.70;;;;;;10487248;28;20211;-79
2022/07/20 12:03:52;;;;;;;8.07;7.37;;;32.10;49.80;;;;;;10473399;28;20287;-80
2022/07/20 12:09:05;;;;;;;7.97;7.37;;;32.00;48.60;;;;;;10454412;28;20209;-82
2022/07/20 12:14:09;;;;;;;6.47;6.00;;;31.90;49.30;;;;;;10468234;28;20239;-80
2022/07/20 12:19:12;;;;;;;7.30;6.60;;;31.90;49.50;;;;;;10472738;28;20201;-81
2022/07/20 12:24:14;;;;;;;6.60;6.10;;;31.90;49.20;;;;;;10492303;28;20239;-81
2022/07/20 12:29:24;;;;;;;9.30;8.50;;;31.90;49.80;;;;;;10472778;28;20644;-81
2022/07/20 12:34:26;;;;;;;8.90;8.00;;;31.90;49.60;;;;;;10477578;28;20212;-80
2022/07/20 12:39:40;;;;;;;8.80;7.90;;;31.90;50.50;;;;;;10480509;28;20204;-79
2022/07/20 12:44:46;;;;;;;8.90;8.13;;;31.90;50.60;;;;;;10474108;28;20217;-80
2022/07/20 12:49:48;;;;;;;9.87;8.87;;;31.90;50.80;;;;;;10464157;28;20261;-80
2022/07/20 12:54:51;;;;;;;10.30;9.60;;;31.90;51.80;;;;;;10479374;22;20239;-79
2022/07/20 12:59:54;;;;;;;14.23;12.03;;;31.80;51.60;;;;;;10462597;28;20212;-80
2022/07/20 13:04:56;;;;;;;12.10;10.40;;;31.90;51.50;;;;;;10462097;28;20740;-81
2022/07/20 13:09:58;;;;;;;12.53;11.30;;;32.00;52.50;;;;;;10451259;28;20197;-81
2022/07/20 13:15:02;;;;;;;13.27;10.83;;;31.90;52.60;;;;;;10442222;28;20970;-78
2022/07/20 13:20:06;;;;;;;11.60;10.73;;;31.80;52.60;;;;;;10453278;28;20655;-79
2022/07/20 13:25:09;;;;;;;16.77;14.00;;;31.80;52.60;;;;;;10444008;28;20228;-79
2022/07/20 13:30:13;;;;;;;15.67;14.20;;;31.70;54.10;;;;;;10459078;28;20221;-81
2022/07/20 13:35:15;;;;;;;16.67;15.17;;;31.50;55.20;;;;;;10457018;28;20221;-80
2022/07/20 13:40:18;;;;;;;21.63;16.17;;;31.30;56.10;;;;;;10462963;28;20534;-81
2022/07/20 13:45:22;;;;;;;16.87;15.17;;;31.20;59.10;;;;;;10459607;28;20217;-79
2022/07/20 13:50:24;;;;;;;17.20;15.50;;;31.00;65.40;;;;;;10455844;28;20205;-79
2022/07/20 13:55:26;;;;;;;17.93;16.40;;;30.70;68.80;;;;;;10450154;28;20319;-79
2022/07/20 14:00:30;;;;;;;20.90;19.00;;;30.50;72.40;;;;;;10460682;28;20687;-80
2022/07/20 14:05:32;;;;;;;17.93;16.53;;;30.40;76.60;;;;;;10454174;28;20740;-80
2022/07/20 14:10:34;;;;;;;17.20;15.67;;;30.30;78.20;;;;;;10459637;28;20235;-80
2022/07/20 14:15:38;;;;;;;17.40;15.87;;;30.20;75.90;;;;;;10468088;28;20229;-80
2022/07/20 14:20:40;;;;;;;17.93;16.27;;;30.20;74.30;;;;;;10467634;28;20260;-80
2022/07/20 14:25:42;;;;;;;18.53;16.50;;;30.10;75.50;;;;;;10467029;28;20245;-80
2022/07/20 14:30:46;;;;;;;18.30;16.23;;;30.10;75.20;;;;;;10474790;28;20223;-81
2022/07/20 14:35:48;;;;;;;17.30;15.70;;;30.10;75.10;;;;;;10480664;28;20225;-80
2022/07/20 14:40:50;;;;;;;16.03;14.73;;;30.10;71.60;;;;;;10447142;28;20212;-79
2022/07/20 14:45:54;;;;;;;17.20;15.50;;;30.30;71.90;;;;;;10470178;28;20241;-78
2022/07/20 14:50:56;;;;;;;23.67;14.80;;;30.60;71.80;;;;;;10461335;28;20212;-79
2022/07/20 14:55:58;;;;;;;17.30;15.80;;;30.70;71.10;;;;;;10472392;28;20245;-80
2022/07/20 15:01:02;;;;;;;16.87;15.27;;;30.70;70.70;;;;;;10473940;28;20206;-79
2022/07/20 15:06:04;;;;;;;16.63;15.30;;;30.80;70.00;;;;;;10475257;28;20209;-81
2022/07/20 15:11:06;;;;;;;16.83;15.03;;;30.70;68.10;;;;;;10477054;28;20206;-80
2022/07/20 15:16:10;;;;;;;17.53;15.93;;;30.70;67.40;;;;;;10476330;28;20224;-80
2022/07/20 15:21:12;;;;;;;16.00;14.67;;;30.80;67.20;;;;;;10473893;28;20673;-80
2022/07/20 15:26:14;;;;;;;15.80;14.40;;;30.80;67.70;;;;;;10474853;28;20241;-80
2022/07/20 15:31:18;;;;;;;15.93;14.60;;;30.70;67.90;;;;;;10474830;28;20200;-81
2022/07/20 15:36:20;;;;;;;14.93;13.63;;;30.60;64.90;;;;;;10474086;28;20220;-81
2022/07/20 15:41:22;;;;;;;14.97;13.47;;;30.40;64.30;;;;;;10463353;28;20657;-81
2022/07/20 15:46:25;;;;;;;16.03;14.63;;;30.20;65.90;;;;;;10469141;28;20759;-80
2022/07/20 15:51:27;;;;;;;15.20;14.00;;;30.20;65.60;;;;;;10468871;28;20209;-79
2022/07/20 16:01:47;;;;;;;12.73;11.80;;;30.50;63.60;;;;;;10453267;28;20242;-80
2022/07/20 16:06:50;;;;;;;15.23;13.83;;;30.70;64.00;;;;;;10470855;28;20228;-80
2022/07/20 16:11:52;;;;;;;12.43;11.53;;;30.90;62.40;;;;;;10471994;28;20228;-80
2022/07/20 16:16:56;;;;;;;13.30;12.00;;;31.00;62.90;;;;;;10468803;28;20251;-80
2022/07/20 16:21:58;;;;;;;14.03;12.70;;;31.00;64.90;;;;;;10470206;28;20753;-80
2022/07/20 16:27:01;;;;;;;12.17;11.17;;;30.90;63.70;;;;;;10469642;28;20217;-80
2022/07/20 16:32:08;;;;;;;13.80;12.70;;;30.80;63.80;;;;;;10465666;28;20296;-79
2022/07/20 16:37:10;;;;;;;13.50;12.43;;;30.60;65.80;;;;;;10466495;28;20221;-79
2022/07/20 16:42:12;;;;;;;14.00;12.80;;;30.30;66.20;;;;;;10467551;28;20197;-79
2022/07/20 16:47:16;;;;;;;16.60;15.17;;;30.10;66.70;;;;;;10459521;28;20556;-79
2022/07/20 16:52:18;;;;;;;16.10;14.80;;;29.90;64.60;;;;;;10456713;28;20221;-78
2022/07/20 16:57:20;;;;;;;16.53;14.90;;;29.90;64.00;;;;;;10457757;28;20291;-79
2022/07/20 17:02:23;;;;;;;15.20;13.80;;;29.90;64.90;;;;;;10458547;28;20758;-78
2022/07/20 17:07:25;;;;;;;16.20;14.53;;;29.90;65.00;;;;;;10457384;28;20209;-79
2022/07/20 17:12:28;;;;;;;14.40;13.00;;;29.90;64.50;;;;;;10456228;28;20205;-80
2022/07/20 17:17:31;;;;;;;19.40;15.30;;;29.80;64.90;;;;;;10457386;28;20228;-79
2022/07/20 17:22:34;;;;;;;23.53;20.77;;;29.60;68.70;;;;;;10456511;28;20232;-80
2022/07/20 17:27:36;;;;;;;25.93;23.03;;;29.30;80.50;;;;;;10457617;28;20308;-79
2022/07/20 17:32:40;;;;;;;24.00;22.00;;;28.70;89.20;;;;;;10457356;28;20201;-80
2022/07/20 17:37:44;;;;;;;24.63;22.17;;;28.10;91.10;;;;;;10457081;28;20236;-80
2022/07/20 17:42:47;;;;;;;26.83;24.53;;;27.60;92.40;;;;;;10456098;28;20231;-79
2022/07/20 17:47:50;;;;;;;26.30;23.90;;;27.20;93.60;;;;;;10453446;28;20213;-78
2022/07/20 17:52:52;;;;;;;25.80;23.50;;;27.10;95.10;;;;;;10450270;28;20236;-77
2022/07/20 17:57:54;;;;;;;26.03;23.77;;;27.00;95.80;;;;;;10455163;28;20610;-80
2022/07/20 18:02:58;;;;;;;23.50;21.67;;;27.00;95.80;;;;;;10456062;28;20201;-77
2022/07/20 18:08:00;;;;;;;23.47;21.47;;;27.10;96.10;;;;;;10453613;28;20296;-77
2022/07/20 18:13:05;;;;;;;21.87;19.77;;;27.10;94.40;;;;;;10452226;28;20280;-78
2022/07/20 18:18:08;;;;;;;15.33;13.70;;;27.10;92.80;;;;;;10452469;28;20337;-79
2022/07/20 18:23:10;;;;;;;16.60;14.80;;;27.00;92.00;;;;;;10451973;28;20287;-77
2022/07/20 18:28:13;;;;;;;22.13;19.83;;;26.40;93.20;;;;;;10450968;28;20737;-78
2022/07/20 18:33:17;;;;;;;24.07;22.30;;;25.70;95.50;;;;;;10446783;28;20206;-77
2022/07/20 18:38:19;;;;;;;25.13;23.27;;;25.10;96.60;;;;;;10450351;28;20225;-77
2022/07/20 18:43:25;;;;;;;26.10;24.10;;;24.40;97.10;;;;;;10427963;28;20716;-79
2022/07/20 18:48:31;;;;;;;31.13;28.83;;;23.90;99.90;;;;;;10452311;28;20197;-78
2022/07/20 18:53:33;;;;;;;28.13;26.10;;;23.60;99.90;;;;;;10456136;28;20231;-80
2022/07/20 18:58:57;;;;;;;35.47;32.57;;;23.30;99.90;;;;;;10465479;22;20393;-78
2022/07/20 19:04:01;;;;;;;35.67;32.67;;;23.20;99.90;;;;;;10433030;28;20223;-78
2022/07/20 19:09:03;;;;;;;34.40;31.80;;;23.20;99.90;;;;;;10432511;28;20193;-78
2022/07/20 19:14:05;;;;;;;34.80;31.90;;;23.10;99.90;;;;;;10438504;28;20259;-78
2022/07/20 19:19:09;;;;;;;36.90;34.07;;;23.10;99.90;;;;;;10466452;28;20227;-79
2022/07/20 19:24:11;;;;;;;36.10;33.20;;;23.10;99.90;;;;;;10446043;28;20228;-78
2022/07/20 19:29:13;;;;;;;35.07;32.20;;;23.10;99.90;;;;;;10478293;28;20204;-79
2022/07/20 19:34:17;;;;;;;36.43;33.43;;;23.20;99.90;;;;;;10424704;28;20580;-78
2022/07/20 19:39:19;;;;;;;37.53;34.50;;;23.20;99.90;;;;;;10461127;28;20197;-80
2022/07/20 19:44:21;;;;;;;37.60;34.27;;;23.20;99.90;;;;;;10463162;28;20221;-80
2022/07/20 19:49:24;;;;;;;36.13;33.33;;;23.10;99.90;;;;;;10457703;28;20231;-80
2022/07/20 19:54:26;;;;;;;37.20;34.03;;;23.10;99.90;;;;;;10465940;28;20601;-80
2022/07/20 19:59:30;;;;;;;37.60;34.20;;;23.00;99.90;;;;;;10448414;28;20630;-78
2022/07/20 20:04:33;;;;;;;36.77;33.37;;;23.00;99.90;;;;;;10439888;28;20274;-80
2022/07/20 20:09:36;;;;;;;36.63;33.60;;;23.10;99.90;;;;;;10459500;28;20284;-80
2022/07/20 20:14:39;;;;;;;36.67;33.70;;;23.20;99.90;;;;;;10462087;28;20331;-80
2022/07/20 20:19:42;;;;;;;32.73;30.13;;;23.30;99.90;;;;;;10460314;28;20240;-78
2022/07/20 20:24:44;;;;;;;32.87;30.00;;;23.30;99.90;;;;;;10439144;28;20251;-77
2022/07/20 20:29:46;;;;;;;33.13;30.63;;;23.30;99.90;;;;;;10443780;28;20205;-80
2022/07/20 20:34:50;;;;;;;31.17;28.57;;;23.30;99.90;;;;;;10461362;28;20363;-78
2022/07/20 20:39:52;;;;;;;31.30;28.63;;;23.30;99.90;;;;;;10463962;28;20201;-80
2022/07/20 20:44:54;;;;;;;31.60;29.10;;;23.30;99.90;;;;;;10448325;28;20217;-80
2022/07/20 20:49:58;;;;;;;31.70;29.17;;;23.40;99.90;;;;;;10454189;28;20205;-80
2022/07/20 20:55:00;;;;;;;31.10;28.60;;;23.40;99.90;;;;;;10446229;28;20221;-80
2022/07/20 21:00:02;;;;;;;31.80;29.13;;;23.40;99.90;;;;;;10463441;28;20557;-80
2022/07/20 21:05:07;;;;;;;32.07;29.50;;;23.40;99.90;;;;;;10464916;28;20240;-80
2022/07/20 21:10:10;;;;;;;32.53;30.03;;;23.40;99.90;;;;;;10462591;28;20229;-81
2022/07/20 21:15:13;;;;;;;31.47;28.83;;;23.40;99.90;;;;;;10419910;28;20256;-80
2022/07/20 21:20:16;;;;;;;31.83;28.77;;;23.30;99.90;;;;;;10446657;28;21554;-80
2022/07/20 21:25:19;;;;;;;31.40;28.90;;;23.30;99.90;;;;;;10438595;28;20229;-80
2022/07/20 21:30:21;;;;;;;28.47;26.20;;;23.40;99.90;;;;;;10438202;28;20632;-77
2022/07/20 21:35:25;;;;;;;28.30;26.30;;;23.40;99.90;;;;;;10433036;28;20714;-78
2022/07/20 21:40:27;;;;;;;27.70;25.47;;;23.40;99.90;;;;;;10431443;28;20325;-78
2022/07/20 21:45:29;;;;;;;26.63;24.50;;;23.40;99.90;;;;;;10432813;28;20262;-78
2022/07/20 21:50:34;;;;;;;24.13;22.33;;;23.40;99.90;;;;;;10425982;28;20201;-78
2022/07/20 21:55:37;;;;;;;24.70;22.70;;;23.40;99.90;;;;;;10416386;28;20328;-78
2022/07/20 22:00:39;;;;;;;23.60;21.70;;;23.40;99.90;;;;;;10435478;28;20209;-78
2022/07/20 22:05:42;;;;;;;25.07;23.23;;;23.40;99.90;;;;;;10445066;28;20296;-78
2022/07/20 22:10:45;;;;;;;25.77;23.77;;;23.40;99.90;;;;;;10443160;28;20199;-78
2022/07/20 22:15:47;;;;;;;25.10;23.20;;;23.30;99.90;;;;;;10409182;28;20249;-80
2022/07/20 22:20:50;;;;;;;24.00;22.30;;;23.30;99.90;;;;;;10444125;28;20210;-80
2022/07/20 22:25:53;;;;;;;22.10;20.47;;;23.30;99.90;;;;;;10408859;28;20221;-78
2022/07/20 22:30:55;;;;;;;22.67;20.73;;;23.20;99.90;;;;;;10443953;28;20228;-78
2022/07/20 22:35:59;;;;;;;19.90;18.20;;;23.20;99.90;;;;;;10430155;28;20232;-81
2022/07/20 22:41:01;;;;;;;19.33;17.70;;;23.20;99.90;;;;;;10459597;28;20211;-80
2022/07/20 22:46:03;;;;;;;19.07;17.47;;;23.10;99.90;;;;;;10458489;28;20709;-80
2022/07/20 22:51:07;;;;;;;18.40;17.03;;;23.10;99.90;;;;;;10459279;28;20292;-80
2022/07/20 22:56:09;;;;;;;17.90;16.50;;;22.90;99.90;;;;;;10452430;28;20229;-78
2022/07/20 23:01:11;;;;;;;19.00;17.50;;;22.80;99.90;;;;;;10451036;28;20205;-78
2022/07/20 23:06:14;;;;;;;18.10;16.53;;;22.70;99.90;;;;;;10449609;28;20225;-78
2022/07/20 23:11:16;;;;;;;18.07;16.60;;;22.60;99.90;;;;;;10436135;28;20201;-80
2022/07/20 23:16:19;;;;;;;17.77;16.27;;;22.50;99.90;;;;;;10450959;28;20595;-79
2022/07/20 23:21:22;;;;;;;17.83;16.40;;;22.50;99.90;;;;;;10449465;28;20661;-79
2022/07/20 23:26:24;;;;;;;17.87;16.20;;;22.50;99.90;;;;;;10447647;28;20221;-78
2022/07/20 23:31:26;;;;;;;18.10;16.60;;;22.40;99.90;;;;;;10447515;28;20208;-78
2022/07/20 23:36:29;;;;;;;17.60;16.20;;;22.40;99.90;;;;;;10448799;28;20229;-78
2022/07/20 23:41:32;;;;;;;17.60;16.07;;;22.40;99.90;;;;;;10416656;28;20232;-80
2022/07/20 23:46:34;;;;;;;19.07;17.60;;;22.40;99.90;;;;;;10456012;28;20221;-80
2022/07/20 23:51:37;;;;;;;20.20;18.50;;;22.40;99.90;;;;;;10461804;28;20212;-79
2022/07/20 23:56:40;;;;;;;21.23;19.40;;;22.40;99.90;;;;;;10446201;28;20233;-79
